Ruth Borchard — V7AL8 — position and weather

sailwx.info

Track history (hours):
 
Tides and Currents Weather Stations Pressure Air Temp Water Temp Dewpoint Dewpoint Depression Visibility Wind Speed Wind Dir Waves Ship Positions

Ruth Borchard

Last reported at 2017-Sep-24 10:14 UTC. Time now 2017-Sep-24 16:04 UTC.
Position N 32°50' E 035°01'.

Length 159 m; draft 7.8 m.

Type: Ship (hazmat cat A). MMSI: 538005024.

Date/timePositionNaut miles runAvg speedWind from/ knotsBaromVisibWave heightAir tempDewpointWater temp
2017-Sep-24 10:14N 32°50' E 035°01'3 3.8
2017-Sep-24 09:33N 32°52' E 034°58'112.6
2017-Sep-24 09:30N 32°52' E 034°58'713.4
2017-Sep-24 09:00N 32°50' E 034°50'611.9
2017-Sep-24 08:30N 32°44' E 034°48'611.3
2017-Sep-24 08:00N 32°39' E 034°46'611.4
2017-Sep-24 07:30N 32°34' E 034°44'611.4
2017-Sep-24 07:00N 32°28' E 034°43'611.4
2017-Sep-24 06:30N 32°22' E 034°41'611.4
2017-Sep-24 06:00N 32°17' E 034°39'611.1
2017-Sep-24 05:30N 32°12' E 034°37'511.0
2017-Sep-24 05:00N 32°06' E 034°35'14 8.6
2017-Sep-24 03:19N 31°52' E 034°37'  
2017-Sep-20 20:13N 37°29' E 023°51'416.5
2017-Sep-20 20:00N 37°32' E 023°49'816.7
2017-Sep-20 19:31N 37°39' E 023°43'816.8
2017-Sep-20 19:01N 37°46' E 023°39'816.0
2017-Sep-20 18:31N 37°54' E 023°37'3 6.3
2017-Sep-20 18:00N 37°57' E 023°36'0 0.3
2017-Sep-20 17:28N 37°57' E 023°36'0 0.0
2017-Sep-20 17:01N 37°57' E 023°36'0 0.0
2017-Sep-20 16:28N 37°57' E 023°36'0 0.0
2017-Sep-20 16:01N 37°57' E 023°36'0 0.0
2017-Sep-20 15:31N 37°57' E 023°36'0 0.0
2017-Sep-20 15:01N 37°57' E 023°36'0 0.0
2017-Sep-20 14:01N 37°57' E 023°36'0 0.0
2017-Sep-20 13:31N 37°57' E 023°36'0 0.0
2017-Sep-20 13:01N 37°57' E 023°36'0 0.0
2017-Sep-20 12:28N 37°57' E 023°36'0 0.0
2017-Sep-20 12:01N 37°57' E 023°36'0 0.0
2017-Sep-20 11:31N 37°57' E 023°36'0 0.0
2017-Sep-20 11:01N 37°57' E 023°36'0 0.0
2017-Sep-20 10:30N 37°57' E 023°36'2 4.4
2017-Sep-20 10:01N 37°55' E 023°37'4 8.8
2017-Sep-20 09:30N 37°51' E 023°39'510.5
2017-Sep-20 09:00N 37°47' E 023°42'510.5
2017-Sep-20 08:30N 37°42' E 023°44'510.4
2017-Sep-20 08:00N 37°37' E 023°46'710.7
2017-Sep-20 07:20N 37°30' E 023°44'1811.9
2017-Sep-20 05:47N 37°12' E 023°37'514.5
2017-Sep-20 05:28N 37°08' E 023°35'714.3
2017-Sep-20 05:00N 37°01' E 023°33'713.9
2017-Sep-20 04:30N 36°55' E 023°30'713.8
2017-Sep-20 04:00N 36°48' E 023°27'713.8
2017-Sep-20 03:30N 36°42' E 023°23'713.7
2017-Sep-20 03:00N 36°36' E 023°19'713.5
2017-Sep-20 02:30N 36°30' E 023°16'34914.4
2017-Sep-19 02:18N 37°48' E 016°09'816.5
2017-Sep-19 01:48N 37°50' E 015°59'516.2
2017-Sep-19 01:31N 37°51' E 015°53'815.9
2017-Sep-19 01:00N 37°54' E 015°43'815.0
2017-Sep-19 00:30N 37°58' E 015°36'816.8
2017-Sep-19 00:01N 38°06' E 015°34'816.7
2017-Sep-18 23:30N 38°15' E 015°37'612.6
2017-Sep-18 23:01N 38°21' E 015°39'917.1
2017-Sep-18 22:31N 38°29' E 015°35'916.9
2017-Sep-18 22:00N 38°37' E 015°32'816.8
2017-Sep-18 21:31N 38°44' E 015°28'816.5
2017-Sep-18 21:00N 38°52' E 015°24'816.8
2017-Sep-18 20:30N 39°00' E 015°21'56011.8
2017-Sep-16 20:57N 40°25' E 003°21'818.4
2017-Sep-16 20:31N 40°24' E 003°10'918.0
2017-Sep-16 20:00N 40°22' E 002°59'917.7
2017-Sep-16 19:30N 40°21' E 002°47'917.8
2017-Sep-16 19:00N 40°19' E 002°36'918.0
2017-Sep-16 18:31N 40°17' E 002°24'918.1
2017-Sep-16 18:00N 40°16' E 002°12'918.0
2017-Sep-16 17:30N 40°14' E 002°01'917.8
2017-Sep-16 17:00N 40°12' E 001°49'917.7
2017-Sep-16 16:30N 40°11' E 001°38'917.4
2017-Sep-16 16:00N 40°09' E 001°27'917.3
2017-Sep-16 15:30N 40°07' E 001°16'917.0
2017-Sep-16 15:00N 40°06' E 001°05'159 6.1
2017-Sep-15 13:07N 37°42' W 000°23'516.8
2017-Sep-15 12:48N 37°38' W 000°26'1916.8
2017-Sep-15 11:39N 37°24' W 000°44'516.9
2017-Sep-15 11:22N 37°21' W 000°48'617.0
2017-Sep-15 10:59N 37°16' W 000°54'22017.9
2017-Sep-14 22:40N 36°00' W 005°11'321.3
2017-Sep-14 22:30N 35°60' W 005°15'1020.7
2017-Sep-14 22:00N 35°57' W 005°28'2319.2
2017-Sep-14 20:50N 35°54' W 005°55'619.0
2017-Sep-14 20:30N 35°54' W 006°03'6718.6
2017-Sep-14 16:55N 36°09' W 007°23'818.6
2017-Sep-14 16:30N 36°11' W 007°33'918.4
2017-Sep-14 16:00N 36°13' W 007°44'918.7
2017-Sep-14 15:30N 36°16' W 007°55'918.7
2017-Sep-14 15:00N 36°19' W 008°06'918.5
2017-Sep-14 14:30N 36°21' W 008°17'918.5
2017-Sep-14 14:00N 36°23' W 008°28'3118.8
2017-Sep-14 12:21N 36°31' W 009°05'  
Track history (hours):
 
Tides and Currents Weather Stations Pressure Air Temp Water Temp Dewpoint Dewpoint Depression Visibility Wind Speed Wind Dir Waves Ship Positions

Ruth Borchard

Last reported at 2017-Sep-24 10:14 UTC. Time now 2017-Sep-24 16:04 UTC.
Position N 32°50' E 035°01'.

Length 159 m; draft 7.8 m.

Type: Ship (hazmat cat A). MMSI: 538005024.

Date/timePositionNaut miles runAvg speedWind from/ knotsBaromVisibWave heightAir tempDewpointWater temp
2017-Sep-24 10:14N 32°50' E 035°01'3 3.8
2017-Sep-24 09:33N 32°52' E 034°58'112.6
2017-Sep-24 09:30N 32°52' E 034°58'713.4
2017-Sep-24 09:00N 32°50' E 034°50'611.9
2017-Sep-24 08:30N 32°44' E 034°48'611.3
2017-Sep-24 08:00N 32°39' E 034°46'611.4
2017-Sep-24 07:30N 32°34' E 034°44'611.4
2017-Sep-24 07:00N 32°28' E 034°43'611.4
2017-Sep-24 06:30N 32°22' E 034°41'611.4
2017-Sep-24 06:00N 32°17' E 034°39'611.1
2017-Sep-24 05:30N 32°12' E 034°37'511.0
2017-Sep-24 05:00N 32°06' E 034°35'14 8.6
2017-Sep-24 03:19N 31°52' E 034°37'  
2017-Sep-20 20:13N 37°29' E 023°51'416.5
2017-Sep-20 20:00N 37°32' E 023°49'816.7
2017-Sep-20 19:31N 37°39' E 023°43'816.8
2017-Sep-20 19:01N 37°46' E 023°39'816.0
2017-Sep-20 18:31N 37°54' E 023°37'3 6.3
2017-Sep-20 18:00N 37°57' E 023°36'0 0.3
2017-Sep-20 17:28N 37°57' E 023°36'0 0.0
2017-Sep-20 17:01N 37°57' E 023°36'0 0.0
2017-Sep-20 16:28N 37°57' E 023°36'0 0.0
2017-Sep-20 16:01N 37°57' E 023°36'0 0.0
2017-Sep-20 15:31N 37°57' E 023°36'0 0.0
2017-Sep-20 15:01N 37°57' E 023°36'0 0.0
2017-Sep-20 14:01N 37°57' E 023°36'0 0.0
2017-Sep-20 13:31N 37°57' E 023°36'0 0.0
2017-Sep-20 13:01N 37°57' E 023°36'0 0.0
2017-Sep-20 12:28N 37°57' E 023°36'0 0.0
2017-Sep-20 12:01N 37°57' E 023°36'0 0.0
2017-Sep-20 11:31N 37°57' E 023°36'0 0.0
2017-Sep-20 11:01N 37°57' E 023°36'0 0.0
2017-Sep-20 10:30N 37°57' E 023°36'2 4.4
2017-Sep-20 10:01N 37°55' E 023°37'4 8.8
2017-Sep-20 09:30N 37°51' E 023°39'510.5
2017-Sep-20 09:00N 37°47' E 023°42'510.5
2017-Sep-20 08:30N 37°42' E 023°44'510.4
2017-Sep-20 08:00N 37°37' E 023°46'710.7
2017-Sep-20 07:20N 37°30' E 023°44'1811.9
2017-Sep-20 05:47N 37°12' E 023°37'514.5
2017-Sep-20 05:28N 37°08' E 023°35'714.3
2017-Sep-20 05:00N 37°01' E 023°33'713.9
2017-Sep-20 04:30N 36°55' E 023°30'713.8
2017-Sep-20 04:00N 36°48' E 023°27'713.8
2017-Sep-20 03:30N 36°42' E 023°23'713.7
2017-Sep-20 03:00N 36°36' E 023°19'713.5
2017-Sep-20 02:30N 36°30' E 023°16'34914.4
2017-Sep-19 02:18N 37°48' E 016°09'816.5
2017-Sep-19 01:48N 37°50' E 015°59'516.2
2017-Sep-19 01:31N 37°51' E 015°53'815.9
2017-Sep-19 01:00N 37°54' E 015°43'815.0
2017-Sep-19 00:30N 37°58' E 015°36'816.8
2017-Sep-19 00:01N 38°06' E 015°34'816.7
2017-Sep-18 23:30N 38°15' E 015°37'612.6
2017-Sep-18 23:01N 38°21' E 015°39'917.1
2017-Sep-18 22:31N 38°29' E 015°35'916.9
2017-Sep-18 22:00N 38°37' E 015°32'816.8
2017-Sep-18 21:31N 38°44' E 015°28'816.5
2017-Sep-18 21:00N 38°52' E 015°24'816.8
2017-Sep-18 20:30N 39°00' E 015°21'56011.8
2017-Sep-16 20:57N 40°25' E 003°21'818.4
2017-Sep-16 20:31N 40°24' E 003°10'918.0
2017-Sep-16 20:00N 40°22' E 002°59'917.7
2017-Sep-16 19:30N 40°21' E 002°47'917.8
2017-Sep-16 19:00N 40°19' E 002°36'918.0
2017-Sep-16 18:31N 40°17' E 002°24'918.1
2017-Sep-16 18:00N 40°16' E 002°12'918.0
2017-Sep-16 17:30N 40°14' E 002°01'917.8
2017-Sep-16 17:00N 40°12' E 001°49'917.7
2017-Sep-16 16:30N 40°11' E 001°38'917.4
2017-Sep-16 16:00N 40°09' E 001°27'917.3
2017-Sep-16 15:30N 40°07' E 001°16'917.0
2017-Sep-16 15:00N 40°06' E 001°05'159 6.1
2017-Sep-15 13:07N 37°42' W 000°23'516.8
2017-Sep-15 12:48N 37°38' W 000°26'1916.8
2017-Sep-15 11:39N 37°24' W 000°44'516.9
2017-Sep-15 11:22N 37°21' W 000°48'617.0
2017-Sep-15 10:59N 37°16' W 000°54'22017.9
2017-Sep-14 22:40N 36°00' W 005°11'321.3
2017-Sep-14 22:30N 35°60' W 005°15'1020.7
2017-Sep-14 22:00N 35°57' W 005°28'2319.2
2017-Sep-14 20:50N 35°54' W 005°55'619.0
2017-Sep-14 20:30N 35°54' W 006°03'6718.6
2017-Sep-14 16:55N 36°09' W 007°23'818.6
2017-Sep-14 16:30N 36°11' W 007°33'918.4
2017-Sep-14 16:00N 36°13' W 007°44'918.7
2017-Sep-14 15:30N 36°16' W 007°55'918.7
2017-Sep-14 15:00N 36°19' W 008°06'918.5
2017-Sep-14 14:30N 36°21' W 008°17'918.5
2017-Sep-14 14:00N 36°23' W 008°28'3118.8
2017-Sep-14 12:21N 36°31' W 009°05'  

Dump ship's entire track history